createdAt,value
2018-12-26T00:00:20.148Z,80.40
2018-12-26T00:02:49.116Z,77.87
2018-12-26T00:05:18.157Z,76.60
2018-12-26T00:07:47.146Z,79.43
2018-12-26T00:10:15.956Z,78.03
2018-12-26T00:12:44.930Z,78.23
2018-12-26T00:15:14.035Z,79.93
2018-12-26T00:17:42.967Z,81.07
2018-12-26T00:20:11.762Z,81.33
2018-12-26T00:22:40.714Z,78.90
2018-12-26T00:25:09.715Z,83.27
2018-12-26T00:27:38.716Z,82.90
2018-12-26T00:30:07.683Z,84.63
2018-12-26T00:32:36.560Z,83.80
2018-12-26T00:35:05.502Z,79.70
2018-12-26T00:37:34.313Z,79.13
2018-12-26T00:40:03.192Z,79.83
2018-12-26T00:42:32.168Z,77.63
2018-12-26T00:45:01.149Z,78.13
2018-12-26T00:47:30.120Z,78.20
2018-12-26T00:49:59.227Z,76.00
2018-12-26T00:52:28.094Z,76.77
2018-12-26T00:54:56.876Z,76.87
2018-12-26T00:57:25.822Z,76.00
2018-12-26T00:59:54.889Z,76.40
2018-12-26T01:02:23.768Z,74.40
2018-12-26T01:04:52.740Z,76.33
2018-12-26T01:07:21.646Z,77.17
2018-12-26T01:09:50.487Z,78.50
2018-12-26T01:12:19.461Z,76.90
2018-12-26T01:14:48.437Z,78.20
2018-12-26T01:17:17.349Z,77.40
2018-12-26T01:19:46.255Z,78.60
2018-12-26T01:22:15.297Z,78.13
2018-12-26T01:24:44.250Z,78.23
2018-12-26T01:27:13.185Z,77.83
2018-12-26T01:29:42.279Z,78.47
2018-12-26T01:32:11.136Z,79.73
2018-12-26T01:34:40.186Z,78.83
2018-12-26T01:37:09.213Z,78.77
2018-12-26T01:39:38.247Z,79.40
2018-12-26T01:42:07.192Z,78.47
2018-12-26T01:44:36.114Z,76.87
2018-12-26T01:47:05.046Z,77.43
2018-12-26T01:49:34.031Z,77.00
2018-12-26T01:52:03.025Z,76.43
2018-12-26T01:54:31.845Z,74.83
2018-12-26T01:57:00.902Z,76.20
2018-12-26T01:59:29.806Z,76.90
2018-12-26T02:01:58.716Z,75.67
2018-12-26T02:04:27.665Z,75.50
2018-12-26T02:06:56.660Z,74.33
2018-12-26T02:09:25.620Z,76.47
2018-12-26T02:11:54.603Z,75.43
2018-12-26T02:14:23.592Z,75.53
2018-12-26T02:16:52.558Z,77.27
2018-12-26T02:19:21.359Z,77.37
2018-12-26T02:21:50.332Z,76.70
2018-12-26T02:24:19.237Z,77.67
2018-12-26T02:26:48.190Z,77.70
2018-12-26T02:29:17.297Z,77.03
2018-12-26T02:31:46.232Z,79.03
2018-12-26T02:34:15.103Z,77.40
2018-12-26T02:36:44.098Z,78.77
2018-12-26T02:39:13.205Z,77.03
2018-12-26T02:41:42.037Z,78.03
2018-12-26T02:44:11.003Z,78.20
2018-12-26T02:46:39.920Z,76.43
2018-12-26T02:49:08.723Z,75.37
2018-12-26T02:51:37.560Z,76.50
2018-12-26T02:54:06.545Z,77.20
2018-12-26T02:56:54.913Z,75.10
2018-12-26T02:59:23.853Z,76.83
2018-12-26T03:01:52.753Z,77.67
2018-12-26T03:04:21.803Z,76.17
2018-12-26T03:06:50.709Z,76.13
2018-12-26T03:09:19.734Z,76.03
2018-12-26T03:11:48.621Z,75.83
2018-12-26T03:14:17.578Z,75.10
2018-12-26T03:16:46.395Z,74.80
2018-12-26T03:19:15.279Z,74.93
2018-12-26T03:21:44.296Z,76.27
2018-12-26T03:24:13.182Z,76.83
2018-12-26T03:26:42.093Z,75.77
2018-12-26T03:29:11.090Z,74.07
2018-12-26T03:31:40.691Z,73.10
2018-12-26T03:34:09.542Z,74.73
2018-12-26T03:36:38.522Z,77.33
2018-12-26T03:39:07.522Z,71.33
2018-12-26T03:41:36.568Z,72.40
2018-12-26T03:44:06.132Z,72.03
2018-12-26T03:46:35.495Z,72.97
2018-12-26T03:49:04.506Z,74.07
2018-12-26T03:51:33.427Z,74.23
2018-12-26T03:54:02.501Z,74.50
2018-12-26T03:56:31.812Z,74.20
2018-12-26T03:59:00.981Z,72.03
2018-12-26T04:01:30.034Z,74.03
2018-12-26T04:03:58.910Z,74.07
2018-12-26T04:06:27.837Z,76.83
2018-12-26T04:08:57.193Z,76.30
2018-12-26T04:11:26.182Z,76.43
2018-12-26T04:13:54.983Z,75.80
2018-12-26T04:16:23.983Z,75.83
2018-12-26T04:18:52.874Z,75.13
2018-12-26T04:21:21.811Z,74.60
2018-12-26T04:23:50.736Z,73.03
2018-12-26T04:26:19.937Z,70.97
2018-12-26T04:28:48.895Z,70.60
2018-12-26T04:31:17.848Z,69.70
2018-12-26T04:33:46.734Z,70.30
2018-12-26T04:36:15.625Z,71.10
2018-12-26T04:38:44.624Z,72.13
2018-12-26T04:41:13.514Z,69.90
2018-12-26T04:43:42.607Z,71.07
2018-12-26T04:46:11.481Z,72.37
2018-12-26T04:48:40.347Z,72.17
2018-12-26T04:51:09.360Z,72.97
2018-12-26T04:53:38.330Z,71.20
2018-12-26T04:56:07.155Z,69.83
2018-12-26T04:58:36.276Z,70.80
2018-12-26T05:01:05.363Z,69.10
2018-12-26T05:03:34.574Z,68.70
2018-12-26T05:06:03.848Z,67.73
2018-12-26T05:08:32.855Z,67.50
2018-12-26T05:11:02.124Z,69.57
2018-12-26T05:13:31.036Z,70.23
2018-12-26T05:15:59.991Z,70.03
2018-12-26T05:18:28.945Z,71.23
2018-12-26T05:20:58.211Z,70.03
2018-12-26T05:23:27.167Z,70.73
2018-12-26T05:25:56.196Z,70.70
2018-12-26T05:28:25.115Z,73.70
2018-12-26T05:30:53.951Z,74.97
2018-12-26T05:33:22.743Z,73.23
2018-12-26T05:35:51.707Z,73.57
2018-12-26T05:38:22.004Z,72.80
2018-12-26T05:40:51.488Z,73.67
2018-12-26T05:43:20.709Z,72.47
2018-12-26T05:45:49.602Z,74.87
2018-12-26T05:48:18.401Z,73.70
2018-12-26T05:50:47.422Z,75.50
2018-12-26T05:53:16.676Z,70.43
2018-12-26T05:55:45.598Z,74.97
2018-12-26T05:58:14.657Z,73.80
2018-12-26T06:00:43.493Z,70.47
2018-12-26T06:03:12.604Z,73.93
2018-12-26T06:05:42.160Z,72.93
2018-12-26T06:08:11.495Z,74.03
2018-12-26T06:10:40.442Z,73.57
2018-12-26T06:13:09.816Z,73.97
2018-12-26T06:15:38.783Z,73.63
2018-12-26T06:18:08.352Z,73.60
2018-12-26T06:20:37.781Z,72.20
2018-12-26T06:23:06.945Z,74.17
2018-12-26T06:25:36.038Z,72.27
2018-12-26T06:28:05.405Z,71.50
2018-12-26T06:30:34.694Z,73.23
2018-12-26T06:33:04.412Z,73.73
2018-12-26T06:35:33.636Z,73.33
2018-12-26T06:38:02.593Z,72.47
2018-12-26T06:40:31.493Z,73.63
2018-12-26T06:43:00.466Z,75.50
2018-12-26T06:45:29.432Z,74.67
2018-12-26T06:47:58.615Z,74.17
2018-12-26T06:50:27.935Z,74.60
2018-12-26T06:52:56.863Z,73.90
2018-12-26T06:55:26.575Z,74.30
2018-12-26T06:58:00.082Z,74.23
2018-12-26T07:00:26.697Z,76.53
2018-12-26T07:02:55.713Z,74.13
2018-12-26T07:05:24.609Z,75.40
2018-12-26T07:07:53.831Z,74.27
2018-12-26T07:10:22.694Z,76.97
2018-12-26T07:12:51.967Z,74.40
2018-12-26T07:15:20.853Z,71.93
2018-12-26T07:17:49.679Z,73.43
2018-12-26T07:20:18.604Z,74.23
2018-12-26T07:22:47.827Z,75.37
2018-12-26T07:25:17.663Z,73.70
2018-12-26T07:27:46.612Z,75.30
2018-12-26T07:30:15.455Z,75.60
2018-12-26T07:32:44.778Z,87.30
2018-12-26T07:35:14.603Z,86.13
2018-12-26T07:37:43.647Z,82.67
2018-12-26T07:40:12.998Z,85.33
2018-12-26T07:42:42.159Z,83.03
2018-12-26T07:45:11.424Z,86.87
2018-12-26T07:47:40.589Z,79.13
2018-12-26T07:50:09.930Z,77.13
2018-12-26T07:52:39.373Z,79.90
2018-12-26T07:55:08.336Z,78.43
2018-12-26T07:57:37.846Z,79.70
2018-12-26T08:00:09.392Z,82.80
2018-12-26T08:02:38.207Z,80.33
2018-12-26T08:05:07.547Z,79.33
2018-12-26T08:07:36.541Z,80.13
2018-12-26T08:10:06.176Z,80.77
2018-12-26T08:12:35.395Z,77.23
2018-12-26T08:15:10.441Z,72.43
2018-12-26T08:17:35.056Z,71.30
2018-12-26T08:20:04.747Z,77.67
2018-12-26T08:22:34.029Z,76.40
2018-12-26T08:25:03.248Z,77.63
2018-12-26T08:27:32.352Z,77.80
2018-12-26T08:30:02.132Z,78.40
2018-12-26T08:32:31.005Z,77.13
2018-12-26T08:34:59.842Z,75.63
2018-12-26T08:37:28.853Z,74.20
2018-12-26T08:39:57.745Z,71.90
2018-12-26T08:42:26.672Z,72.30
2018-12-26T08:44:55.647Z,72.90
2018-12-26T08:47:26.016Z,73.63
2018-12-26T08:49:54.944Z,70.80
2018-12-26T08:52:24.488Z,71.10
2018-12-26T08:54:53.268Z,72.97
2018-12-26T08:57:22.237Z,70.77
2018-12-26T08:59:51.498Z,70.60
2018-12-26T09:02:20.307Z,70.70
2018-12-26T09:04:49.248Z,74.97
2018-12-26T09:07:18.934Z,73.40
2018-12-26T09:09:47.806Z,73.33
2018-12-26T09:12:17.841Z,73.07
2018-12-26T09:14:46.777Z,71.97
2018-12-26T09:17:16.117Z,70.37
2018-12-26T09:19:45.270Z,72.90
2018-12-26T09:22:14.233Z,74.67
2018-12-26T09:24:43.125Z,73.40
2018-12-26T09:27:13.287Z,75.43
2018-12-26T09:29:43.647Z,76.33
2018-12-26T09:32:14.255Z,74.30
2018-12-26T09:34:43.472Z,75.17
2018-12-26T09:37:13.340Z,72.90
2018-12-26T09:39:42.981Z,74.60
2018-12-26T09:42:12.177Z,75.57
2018-12-26T09:44:41.687Z,73.27
2018-12-26T09:47:11.485Z,75.47
2018-12-26T09:49:41.372Z,75.30
2018-12-26T09:52:10.300Z,76.87
2018-12-26T09:54:39.304Z,79.40
2018-12-26T09:57:08.218Z,78.83
2018-12-26T09:59:43.559Z,77.50
2018-12-26T10:02:12.433Z,76.30
2018-12-26T10:04:41.422Z,75.63
2018-12-26T10:07:10.441Z,79.47
2018-12-26T10:09:39.863Z,78.80
2018-12-26T10:12:09.422Z,78.37
2018-12-26T10:14:39.092Z,76.60
2018-12-26T10:17:08.125Z,81.57
2018-12-26T10:19:37.415Z,79.00
2018-12-26T10:22:06.340Z,82.30
2018-12-26T10:24:35.594Z,83.63
2018-12-26T10:27:04.785Z,77.43
2018-12-26T10:29:33.707Z,75.20
2018-12-26T10:32:02.656Z,78.40
2018-12-26T10:34:31.583Z,79.30
2018-12-26T10:37:00.489Z,82.07
2018-12-26T10:39:29.444Z,82.20
2018-12-26T10:41:58.420Z,79.60
2018-12-26T10:44:27.641Z,77.90
2018-12-26T10:46:56.533Z,77.40
2018-12-26T10:49:25.460Z,78.43
2018-12-26T10:51:54.450Z,74.73
2018-12-26T10:54:23.403Z,82.40
2018-12-26T10:56:52.214Z,80.23
2018-12-26T10:59:21.269Z,91.47
2018-12-26T11:01:51.547Z,80.07
2018-12-26T11:04:20.516Z,79.30
2018-12-26T11:06:49.604Z,80.23
2018-12-26T11:09:30.698Z,83.00
2018-12-26T11:11:59.644Z,79.50
2018-12-26T11:14:28.606Z,83.77
2018-12-26T11:16:57.517Z,82.47
2018-12-26T11:19:26.338Z,82.73
2018-12-26T11:21:55.640Z,85.27
2018-12-26T11:24:24.460Z,78.63
2018-12-26T11:26:53.791Z,82.97
2018-12-26T11:29:22.773Z,80.60
2018-12-26T11:31:52.062Z,80.13
2018-12-26T11:34:20.952Z,79.40
2018-12-26T11:36:50.099Z,83.47
2018-12-26T11:39:19.189Z,89.07
2018-12-26T11:41:48.135Z,84.90
2018-12-26T11:44:17.203Z,85.73
2018-12-26T11:46:46.184Z,85.47
2018-12-26T11:49:15.108Z,84.17
2018-12-26T11:51:44.077Z,89.63
2018-12-26T11:54:13.412Z,87.37
2018-12-26T11:56:42.802Z,89.67
2018-12-26T11:59:12.168Z,93.40
2018-12-26T12:01:41.226Z,87.53
2018-12-26T12:04:10.508Z,90.50
2018-12-26T12:06:39.530Z,91.60
2018-12-26T12:09:08.449Z,86.43
2018-12-26T12:11:37.483Z,86.90
2018-12-26T12:14:06.770Z,89.17
2018-12-26T12:16:35.696Z,88.57
2018-12-26T12:19:04.876Z,86.23
2018-12-26T12:21:33.797Z,87.80
2018-12-26T12:24:02.924Z,87.47
2018-12-26T12:26:31.792Z,91.03
2018-12-26T12:29:00.863Z,91.83
2018-12-26T12:31:30.334Z,85.73
2018-12-26T12:33:59.544Z,84.30
2018-12-26T12:36:28.702Z,89.67
2018-12-26T12:38:57.936Z,86.93
2018-12-26T12:41:26.956Z,87.53
2018-12-26T12:43:55.947Z,84.80
2018-12-26T12:46:25.030Z,80.20
2018-12-26T12:48:54.607Z,80.63
2018-12-26T12:51:23.629Z,84.67
2018-12-26T12:53:52.716Z,80.70
2018-12-26T12:56:21.548Z,81.10
2018-12-26T12:58:50.664Z,82.07
2018-12-26T13:01:19.660Z,78.87
2018-12-26T13:03:48.785Z,77.13
2018-12-26T13:06:17.809Z,78.90
2018-12-26T13:08:46.853Z,79.30
2018-12-26T13:11:15.887Z,81.77
2018-12-26T13:13:44.717Z,81.73
2018-12-26T13:16:13.823Z,81.97
2018-12-26T13:18:43.312Z,78.40
2018-12-26T13:21:12.372Z,80.23
2018-12-26T13:23:41.393Z,80.47
2018-12-26T13:26:10.421Z,78.43
2018-12-26T13:28:39.874Z,78.70
2018-12-26T13:31:08.930Z,80.37
2018-12-26T13:33:38.073Z,81.67
2018-12-26T13:36:06.972Z,80.57
2018-12-26T13:38:36.284Z,83.33
2018-12-26T13:41:05.282Z,82.57
2018-12-26T13:43:34.126Z,80.67
2018-12-26T13:46:03.167Z,81.43
2018-12-26T13:48:32.175Z,80.07
2018-12-26T13:51:01.109Z,81.53
2018-12-26T13:53:30.000Z,78.40
2018-12-26T13:55:59.015Z,82.03
2018-12-26T13:58:27.986Z,81.10
2018-12-26T14:00:57.085Z,82.60
2018-12-26T14:03:26.359Z,85.50
2018-12-26T14:05:55.388Z,83.87
2018-12-26T14:08:24.724Z,79.30
2018-12-26T14:10:53.647Z,84.20
2018-12-26T14:13:22.712Z,85.10
2018-12-26T14:15:51.745Z,82.10
2018-12-26T14:18:20.648Z,84.63
2018-12-26T14:20:49.662Z,85.47
2018-12-26T14:23:18.973Z,90.93
2018-12-26T14:25:48.210Z,85.93
2018-12-26T14:28:17.940Z,84.17
2018-12-26T14:30:46.917Z,92.87
2018-12-26T14:33:15.889Z,88.13
2018-12-26T14:35:51.907Z,96.17
2018-12-26T14:38:20.814Z,85.53
2018-12-26T14:40:49.778Z,85.40
2018-12-26T14:43:18.661Z,81.43
2018-12-26T14:45:47.660Z,78.90
2018-12-26T14:48:16.987Z,80.13
2018-12-26T14:50:46.194Z,81.63
2018-12-26T14:53:15.561Z,83.10
2018-12-26T14:55:44.555Z,81.80
2018-12-26T14:58:13.593Z,79.37
2018-12-26T15:00:43.282Z,78.47
2018-12-26T15:03:12.363Z,82.80
2018-12-26T15:05:41.278Z,79.00
2018-12-26T15:08:10.176Z,84.97
2018-12-26T15:10:39.156Z,79.17
2018-12-26T15:13:08.134Z,80.97
2018-12-26T15:15:37.058Z,84.60
2018-12-26T15:18:06.038Z,84.87
2018-12-26T15:20:34.935Z,86.13
2018-12-26T15:23:03.929Z,81.20
2018-12-26T15:25:33.162Z,80.33
2018-12-26T15:28:02.236Z,80.00
2018-12-26T15:30:31.217Z,77.47
2018-12-26T15:33:00.200Z,78.13
2018-12-26T15:35:29.062Z,75.70
2018-12-26T15:37:57.881Z,75.87
2018-12-26T15:40:26.945Z,77.20
2018-12-26T15:42:55.927Z,76.33
2018-12-26T15:45:25.747Z,76.00
2018-12-26T15:47:54.622Z,75.43
2018-12-26T15:50:24.137Z,77.53
2018-12-26T15:52:53.042Z,73.90
2018-12-26T15:55:21.847Z,77.60
2018-12-26T15:57:50.781Z,78.40
2018-12-26T16:00:19.844Z,74.97
2018-12-26T16:02:48.927Z,73.53
2018-12-26T16:05:18.062Z,81.33
2018-12-26T16:07:47.038Z,82.90
2018-12-26T16:10:16.183Z,80.87
2018-12-26T16:12:45.132Z,84.57
2018-12-26T16:15:14.046Z,88.17
2018-12-26T16:17:43.122Z,83.57
2018-12-26T16:20:12.036Z,83.80
2018-12-26T16:22:41.031Z,81.13
2018-12-26T16:25:11.009Z,81.73
2018-12-26T16:27:39.945Z,81.30
2018-12-26T16:30:09.499Z,79.90
2018-12-26T16:32:38.390Z,80.10
2018-12-26T16:35:08.624Z,80.70
2018-12-26T16:37:37.540Z,79.40
2018-12-26T16:40:08.541Z,79.17
2018-12-26T16:42:38.354Z,79.77
2018-12-26T16:45:07.320Z,78.10
2018-12-26T16:47:36.277Z,78.90
2018-12-26T16:50:06.108Z,78.97
2018-12-26T16:52:35.043Z,80.37
2018-12-26T16:55:03.920Z,80.23
2018-12-26T16:57:32.864Z,77.93
2018-12-26T17:00:01.778Z,78.10
2018-12-26T17:02:30.726Z,79.37
2018-12-26T17:04:59.725Z,79.60
2018-12-26T17:07:28.624Z,79.47
2018-12-26T17:09:57.581Z,78.53
2018-12-26T17:12:26.859Z,79.67
2018-12-26T17:14:55.855Z,78.77
2018-12-26T17:17:24.802Z,77.17
2018-12-26T17:19:53.697Z,78.97
2018-12-26T17:22:22.705Z,80.03
2018-12-26T17:24:51.815Z,81.07
2018-12-26T17:27:20.694Z,79.17
2018-12-26T17:29:49.678Z,81.53
2018-12-26T17:32:18.665Z,83.10
2018-12-26T17:34:47.521Z,81.10
2018-12-26T17:37:16.969Z,78.77
2018-12-26T17:39:45.962Z,80.27
2018-12-26T17:42:15.235Z,78.70
2018-12-26T17:44:44.209Z,81.87
2018-12-26T17:47:13.177Z,81.77
2018-12-26T17:49:42.080Z,81.67
2018-12-26T17:52:11.031Z,79.57
2018-12-26T17:55:46.144Z,81.17
2018-12-26T17:58:14.958Z,78.57
2018-12-26T18:01:20.184Z,79.70
2018-12-26T18:03:49.097Z,76.70
2018-12-26T18:06:18.522Z,77.10
2018-12-26T18:08:47.396Z,77.80
2018-12-26T18:11:16.355Z,81.97
2018-12-26T18:13:45.174Z,79.27
2018-12-26T18:16:14.109Z,80.97
2018-12-26T18:18:43.195Z,81.03
2018-12-26T18:21:12.190Z,80.97
2018-12-26T18:23:41.196Z,79.27
2018-12-26T18:26:10.090Z,80.87
2018-12-26T18:28:38.966Z,80.70
2018-12-26T18:31:08.041Z,79.80
2018-12-26T18:33:36.993Z,80.30
2018-12-26T18:36:05.934Z,80.00
2018-12-26T18:38:34.769Z,81.37
2018-12-26T18:41:03.643Z,82.20
2018-12-26T18:43:32.928Z,80.80
2018-12-26T18:46:01.883Z,79.60
2018-12-26T18:48:30.838Z,78.57
2018-12-26T18:51:00.447Z,79.17
2018-12-26T18:53:29.250Z,78.23
2018-12-26T18:55:58.267Z,79.13
2018-12-26T18:58:27.207Z,79.67
2018-12-26T19:00:56.057Z,79.50
2018-12-26T19:03:24.937Z,78.40
2018-12-26T19:05:53.787Z,78.43
2018-12-26T19:08:22.581Z,79.27
2018-12-26T19:10:51.583Z,78.47
2018-12-26T19:13:21.393Z,78.53
2018-12-26T19:15:50.335Z,78.47
2018-12-26T19:18:19.226Z,76.50
2018-12-26T19:20:48.169Z,76.93
2018-12-26T19:23:17.471Z,79.87
2018-12-26T19:25:46.353Z,79.93
2018-12-26T19:28:15.189Z,79.53
2018-12-26T19:30:44.208Z,78.93
2018-12-26T19:33:13.509Z,79.70
2018-12-26T19:35:42.559Z,79.23
2018-12-26T19:38:11.460Z,78.27
2018-12-26T19:40:40.755Z,79.13
2018-12-26T19:43:09.667Z,80.33
2018-12-26T19:45:40.169Z,79.60
2018-12-26T19:48:09.277Z,81.03
2018-12-26T19:50:38.225Z,80.17
2018-12-26T19:53:07.150Z,80.73
2018-12-26T19:55:36.120Z,79.90
2018-12-26T19:58:05.123Z,79.27
2018-12-26T20:00:34.017Z,82.27
2018-12-26T20:03:02.910Z,83.77
2018-12-26T20:05:32.311Z,79.33
2018-12-26T20:08:01.608Z,80.73
2018-12-26T20:10:30.858Z,79.90
2018-12-26T20:12:59.823Z,80.10
2018-12-26T20:15:28.688Z,79.10
2018-12-26T20:17:57.692Z,81.47
2018-12-26T20:20:26.563Z,80.37
2018-12-26T20:22:55.476Z,78.03
2018-12-26T20:25:24.574Z,80.30
2018-12-26T20:27:53.486Z,79.80
2018-12-26T20:30:22.399Z,81.13
2018-12-26T20:32:51.361Z,80.00
2018-12-26T20:35:20.156Z,80.67
2018-12-26T20:37:49.083Z,79.13
2018-12-26T20:40:18.938Z,82.40
2018-12-26T20:42:48.184Z,82.63
2018-12-26T20:45:17.187Z,82.03
2018-12-26T20:47:46.211Z,83.67
2018-12-26T20:50:15.117Z,83.83
2018-12-26T20:52:44.196Z,83.33
2018-12-26T20:55:14.031Z,83.47
2018-12-26T20:57:42.998Z,85.50
2018-12-26T21:00:12.343Z,84.67
2018-12-26T21:02:41.327Z,86.67
2018-12-26T21:05:10.680Z,85.97
2018-12-26T21:07:40.025Z,84.33
2018-12-26T21:10:09.378Z,85.90
2018-12-26T21:12:38.314Z,85.33
2018-12-26T21:15:08.212Z,84.63
2018-12-26T21:17:37.478Z,85.40
2018-12-26T21:20:08.813Z,84.90
2018-12-26T21:22:37.771Z,85.43
2018-12-26T21:25:08.146Z,89.93
2018-12-26T21:27:37.353Z,90.47
2018-12-26T21:30:09.233Z,88.40
2018-12-26T21:32:38.933Z,89.93
2018-12-26T21:35:08.192Z,89.60
2018-12-26T21:37:37.000Z,89.67
2018-12-26T21:40:06.549Z,86.33
2018-12-26T21:42:35.390Z,82.13
2018-12-26T21:45:04.546Z,87.80
2018-12-26T21:47:33.770Z,86.20
2018-12-26T21:50:02.975Z,87.80
2018-12-26T21:52:32.544Z,84.50
2018-12-26T21:55:01.529Z,87.93
2018-12-26T21:57:30.525Z,88.27
2018-12-26T21:59:59.365Z,86.17
2018-12-26T22:02:28.281Z,84.87
2018-12-26T22:04:57.224Z,85.53
2018-12-26T22:07:26.197Z,86.97
2018-12-26T22:09:55.555Z,86.67
2018-12-26T22:12:24.902Z,88.23
2018-12-26T22:14:54.025Z,84.10
2018-12-26T22:17:23.018Z,85.37
2018-12-26T22:19:52.352Z,88.47
2018-12-26T22:22:21.578Z,84.77
2018-12-26T22:24:50.436Z,85.20
2018-12-26T22:27:19.297Z,87.00
2018-12-26T22:29:50.513Z,86.53
2018-12-26T22:32:19.634Z,84.97
2018-12-26T22:34:48.649Z,86.10
2018-12-26T22:37:17.497Z,86.53
2018-12-26T22:39:47.192Z,89.33
2018-12-26T22:42:16.180Z,88.70
2018-12-26T22:44:45.578Z,84.90
2018-12-26T22:47:14.460Z,89.00
2018-12-26T22:49:43.340Z,88.20
2018-12-26T22:52:12.231Z,88.80
2018-12-26T22:54:41.149Z,89.10
2018-12-26T22:57:12.809Z,86.30
2018-12-26T22:59:42.280Z,86.40
2018-12-26T23:02:12.546Z,86.67
2018-12-26T23:04:41.668Z,86.20
2018-12-26T23:07:10.494Z,87.47
2018-12-26T23:09:39.851Z,88.27
2018-12-26T23:12:08.822Z,88.87
2018-12-26T23:14:38.081Z,89.37
2018-12-26T23:17:07.760Z,86.10
2018-12-26T23:19:36.566Z,90.37
2018-12-26T23:22:05.972Z,87.90
2018-12-26T23:24:35.047Z,85.80
2018-12-26T23:27:04.036Z,87.03
2018-12-26T23:29:32.960Z,89.37
2018-12-26T23:32:01.945Z,83.80
2018-12-26T23:34:31.453Z,84.07
2018-12-26T23:37:00.295Z,101.05
2018-12-26T23:39:29.578Z,89.73
2018-12-26T23:41:58.430Z,86.73
2018-12-26T23:44:27.694Z,84.60
2018-12-26T23:46:56.695Z,84.53
2018-12-26T23:49:25.903Z,83.03
2018-12-26T23:51:55.110Z,82.27
2018-12-26T23:54:24.187Z,83.50
2018-12-26T23:56:53.137Z,83.70
2018-12-26T23:59:22.716Z,86.63
